createdAt,value
2022-12-01T00:01:39.627Z,3.10
2022-12-01T00:04:12.112Z,3.10
2022-12-01T00:06:45.206Z,3.10
2022-12-01T00:09:36.258Z,3.10
2022-12-01T00:12:09.134Z,3.10
2022-12-01T00:14:41.581Z,3.10
2022-12-01T00:17:14.682Z,3.10
2022-12-01T00:19:47.520Z,3.10
2022-12-01T00:22:20.837Z,3.10
2022-12-01T00:24:53.306Z,3.10
2022-12-01T00:27:26.105Z,3.10
2022-12-01T00:29:58.528Z,3.10
2022-12-01T00:32:31.692Z,3.10
2022-12-01T00:35:06.105Z,3.10
2022-12-01T00:37:38.885Z,3.10
2022-12-01T00:40:11.919Z,3.10
2022-12-01T00:42:44.654Z,3.10
2022-12-01T00:45:17.208Z,3.10
2022-12-01T00:47:49.948Z,3.10
2022-12-01T00:50:22.441Z,3.10
2022-12-01T00:52:55.278Z,3.20
2022-12-01T00:55:27.828Z,3.10
2022-12-01T00:58:00.599Z,3.10
2022-12-01T01:00:33.112Z,3.20
2022-12-01T01:03:07.717Z,3.20
2022-12-01T01:05:42.232Z,3.20
2022-12-01T01:08:15.204Z,3.10
2022-12-01T01:10:48.830Z,3.10
2022-12-01T01:13:21.610Z,3.20
2022-12-01T01:16:03.454Z,3.10
2022-12-01T01:18:36.271Z,3.10
2022-12-01T01:21:12.966Z,3.10
2022-12-01T01:23:45.902Z,3.10
2022-12-01T01:26:20.061Z,3.20
2022-12-01T01:28:53.653Z,3.20
2022-12-01T01:31:28.499Z,3.20
2022-12-01T01:34:01.363Z,3.10
2022-12-01T01:36:34.127Z,3.10
2022-12-01T01:39:07.005Z,3.20
2022-12-01T01:41:39.479Z,3.20
2022-12-01T01:44:50.913Z,3.20
2022-12-01T01:47:36.247Z,3.20
2022-12-01T01:50:14.153Z,3.20
2022-12-01T01:52:51.389Z,3.20
2022-12-01T01:55:25.010Z,3.20
2022-12-01T01:57:57.802Z,3.20
2022-12-01T02:00:30.581Z,3.20
2022-12-01T02:03:04.345Z,3.20
2022-12-01T02:05:38.273Z,3.20
2022-12-01T02:08:14.305Z,3.20
2022-12-01T02:11:05.891Z,3.20
2022-12-01T02:13:47.394Z,3.20
2022-12-01T02:16:30.651Z,3.20
2022-12-01T02:19:21.156Z,3.20
2022-12-01T02:22:14.217Z,3.20
2022-12-01T02:25:08.192Z,3.20
2022-12-01T02:27:58.424Z,3.20
2022-12-01T02:30:36.818Z,3.20
2022-12-01T02:33:38.799Z,3.20
2022-12-01T02:36:33.680Z,3.20
2022-12-01T02:39:13.629Z,3.20
2022-12-01T02:41:59.105Z,3.20
2022-12-01T02:44:40.116Z,3.20
2022-12-01T02:47:16.363Z,3.10
2022-12-01T02:49:52.254Z,3.10
2022-12-01T02:52:27.170Z,3.20
2022-12-01T02:54:59.926Z,3.20
2022-12-01T02:57:32.438Z,3.30
2022-12-01T03:00:06.762Z,3.20
2022-12-01T03:03:09.393Z,3.20
2022-12-01T03:05:44.998Z,3.20
2022-12-01T03:08:45.978Z,3.20
2022-12-01T03:11:29.970Z,3.20
2022-12-01T03:14:22.954Z,3.30
2022-12-01T03:16:58.998Z,3.30
2022-12-01T03:20:02.451Z,3.30
2022-12-01T03:22:42.542Z,3.30
2022-12-01T03:25:16.649Z,3.30
2022-12-01T03:28:20.175Z,3.30
2022-12-01T03:30:52.686Z,3.30
2022-12-01T03:33:43.611Z,3.30
2022-12-01T03:36:36.367Z,3.20
2022-12-01T03:39:15.365Z,3.30
2022-12-01T03:42:02.326Z,3.30
2022-12-01T03:44:42.893Z,3.20
2022-12-01T03:47:20.705Z,3.20
2022-12-01T03:49:54.666Z,3.20
2022-12-01T03:52:43.630Z,3.20
2022-12-01T03:55:29.083Z,3.20
2022-12-01T03:58:13.138Z,3.30
2022-12-01T04:00:50.037Z,3.20
2022-12-01T04:03:25.619Z,3.20
2022-12-01T04:05:58.409Z,3.20
2022-12-01T04:08:30.922Z,3.20
2022-12-01T04:11:27.090Z,3.20
2022-12-01T04:14:02.105Z,3.20
2022-12-01T04:16:35.217Z,3.20
2022-12-01T04:19:07.780Z,3.20
2022-12-01T04:21:40.547Z,3.20
2022-12-01T04:24:13.510Z,3.20
2022-12-01T04:26:46.592Z,3.10
2022-12-01T04:29:19.093Z,3.10
2022-12-01T04:31:51.948Z,3.20
2022-12-01T04:34:24.710Z,3.20
2022-12-01T04:36:57.494Z,3.20
2022-12-01T04:39:29.966Z,3.20
2022-12-01T04:42:03.200Z,3.20
2022-12-01T04:44:36.087Z,3.20
2022-12-01T04:47:08.921Z,3.20
2022-12-01T04:49:41.460Z,3.20
2022-12-01T04:52:14.272Z,3.20
2022-12-01T04:54:46.855Z,3.20
2022-12-01T04:57:19.701Z,3.20
2022-12-01T04:59:52.291Z,3.20
2022-12-01T05:02:25.241Z,3.20
2022-12-01T05:04:57.805Z,3.20
2022-12-01T05:07:30.618Z,3.20
2022-12-01T05:10:03.899Z,3.20
2022-12-01T05:12:37.432Z,3.20
2022-12-01T05:15:10.204Z,3.20
2022-12-01T05:17:43.261Z,3.20
2022-12-01T05:20:39.655Z,3.20
2022-12-01T05:23:16.819Z,3.20
2022-12-01T05:25:49.729Z,3.20
2022-12-01T05:28:24.601Z,3.20
2022-12-01T05:30:57.173Z,3.20
2022-12-01T05:33:31.300Z,3.20
2022-12-01T05:36:03.973Z,3.20
2022-12-01T05:38:37.008Z,3.20
2022-12-01T05:41:10.275Z,3.20
2022-12-01T05:43:43.120Z,3.20
2022-12-01T05:46:15.706Z,3.30
2022-12-01T05:48:48.513Z,3.30
2022-12-01T05:51:21.076Z,3.30
2022-12-01T05:53:53.887Z,3.30
2022-12-01T05:56:26.460Z,3.40
2022-12-01T05:58:59.211Z,3.30
2022-12-01T06:01:31.769Z,3.30
2022-12-01T06:04:04.783Z,3.30
2022-12-01T06:06:37.312Z,3.30
2022-12-01T06:09:10.989Z,3.40
2022-12-01T06:11:43.467Z,3.30
2022-12-01T06:14:16.558Z,3.30
2022-12-01T06:16:49.145Z,3.30
2022-12-01T06:19:22.291Z,3.30
2022-12-01T06:21:54.880Z,3.30
2022-12-01T06:24:28.043Z,3.30
2022-12-01T06:27:00.720Z,3.30
2022-12-01T06:29:35.641Z,3.30
2022-12-01T06:32:10.711Z,3.40
2022-12-01T06:34:46.236Z,3.30
2022-12-01T06:37:18.996Z,3.40
2022-12-01T06:39:52.248Z,3.40
2022-12-01T06:42:25.096Z,3.40
2022-12-01T06:44:58.091Z,3.40
2022-12-01T06:47:30.899Z,3.40
2022-12-01T06:50:07.967Z,3.50
2022-12-01T06:52:40.445Z,3.40
2022-12-01T06:55:13.310Z,3.50
2022-12-01T06:57:46.134Z,3.50
2022-12-01T07:00:19.474Z,3.50
2022-12-01T07:02:52.292Z,3.50
2022-12-01T07:05:25.869Z,3.60
2022-12-01T07:07:59.796Z,3.50
2022-12-01T07:10:32.885Z,3.50
2022-12-01T07:13:05.390Z,3.50
2022-12-01T07:15:38.969Z,3.60
2022-12-01T07:18:11.471Z,3.60
2022-12-01T07:20:44.278Z,3.60
2022-12-01T07:23:16.837Z,3.60
2022-12-01T07:25:57.692Z,3.60
2022-12-01T07:28:30.652Z,3.70
2022-12-01T07:31:05.629Z,3.60
2022-12-01T07:33:38.582Z,3.70
2022-12-01T07:36:12.179Z,3.70
2022-12-01T07:38:44.713Z,3.70
2022-12-01T07:41:21.496Z,3.70
2022-12-01T07:43:55.530Z,3.70
2022-12-01T07:46:28.908Z,3.70
2022-12-01T07:49:01.573Z,3.70
2022-12-01T07:51:35.672Z,3.70
2022-12-01T07:54:08.340Z,3.70
2022-12-01T07:56:41.503Z,3.70
2022-12-01T07:59:14.202Z,3.70
2022-12-01T08:01:47.142Z,3.70
2022-12-01T08:04:19.679Z,3.80
2022-12-01T08:06:52.736Z,3.80
2022-12-01T08:09:25.527Z,3.80
2022-12-01T08:11:58.375Z,3.80
2022-12-01T08:14:30.949Z,3.90
2022-12-01T08:17:03.876Z,3.90
2022-12-01T08:19:36.555Z,3.90
2022-12-01T08:22:09.613Z,3.90
2022-12-01T08:24:42.194Z,3.90
2022-12-01T08:27:14.980Z,3.90
2022-12-01T08:29:47.801Z,4.00
2022-12-01T08:32:23.368Z,4.00
2022-12-01T08:34:56.061Z,4.00
2022-12-01T08:37:28.876Z,4.00
2022-12-01T08:40:01.409Z,4.00
2022-12-01T08:42:34.311Z,4.00
2022-12-01T08:45:07.253Z,4.00
2022-12-01T08:47:40.149Z,4.10
2022-12-01T08:50:12.811Z,4.10
2022-12-01T08:52:46.637Z,4.10
2022-12-01T08:55:19.749Z,4.10
2022-12-01T08:57:52.578Z,4.10
2022-12-01T09:00:25.391Z,4.20
2022-12-01T09:02:58.207Z,4.20
2022-12-01T09:05:30.785Z,4.20
2022-12-01T09:08:22.195Z,4.10
2022-12-01T09:10:54.693Z,4.20
2022-12-01T09:13:28.661Z,4.20
2022-12-01T09:16:11.235Z,4.20
2022-12-01T09:18:46.035Z,4.20
2022-12-01T09:21:25.019Z,4.30
2022-12-01T09:23:58.104Z,4.30
2022-12-01T09:26:31.408Z,4.30
2022-12-01T09:29:07.460Z,4.30
2022-12-01T09:31:40.601Z,4.40
2022-12-01T09:34:16.393Z,4.40
2022-12-01T09:36:49.277Z,4.40
2022-12-01T09:39:22.223Z,4.40
2022-12-01T09:42:07.650Z,4.40
2022-12-01T09:44:50.789Z,4.40
2022-12-01T09:47:30.880Z,4.40
2022-12-01T09:50:06.947Z,4.30
2022-12-01T09:53:06.456Z,4.30
2022-12-01T09:55:39.710Z,4.30
2022-12-01T09:58:19.294Z,4.30
2022-12-01T10:00:54.373Z,4.30
2022-12-01T10:03:46.485Z,4.30
2022-12-01T10:06:37.834Z,4.30
2022-12-01T10:09:32.524Z,4.40
2022-12-01T10:12:15.277Z,4.40
2022-12-01T10:15:06.711Z,4.50
2022-12-01T10:17:59.857Z,4.50
2022-12-01T10:21:05.223Z,4.60
2022-12-01T10:24:08.751Z,4.80
2022-12-01T10:33:24.253Z,5.00
2022-12-01T10:36:09.359Z,5.10
2022-12-01T10:38:50.889Z,5.10
2022-12-01T10:41:29.014Z,5.20
2022-12-01T10:44:05.665Z,5.30
2022-12-01T10:46:48.157Z,5.40
2022-12-01T10:49:23.151Z,5.40
2022-12-01T10:51:58.050Z,5.40
2022-12-01T10:54:41.312Z,5.50
2022-12-01T10:57:17.821Z,5.40
2022-12-01T11:00:06.860Z,5.40
2022-12-01T11:02:43.830Z,5.40
2022-12-01T11:05:27.544Z,5.40
2022-12-01T11:08:00.462Z,5.50
2022-12-01T11:10:34.053Z,5.50
2022-12-01T11:13:28.799Z,5.50
2022-12-01T11:16:04.432Z,5.60
2022-12-01T11:18:38.548Z,5.60
2022-12-01T11:21:14.708Z,5.60
2022-12-01T11:23:49.361Z,5.60
2022-12-01T11:26:32.430Z,5.70
2022-12-01T11:29:20.694Z,5.80
2022-12-01T11:31:53.840Z,5.80
2022-12-01T11:34:34.611Z,5.90
2022-12-01T11:37:15.747Z,6.00
2022-12-01T11:39:50.149Z,6.00
2022-12-01T11:42:28.603Z,6.00
2022-12-01T11:45:22.534Z,5.90
2022-12-01T11:48:01.996Z,5.90
2022-12-01T11:50:37.963Z,6.00
2022-12-01T11:53:32.157Z,6.00
2022-12-01T11:56:44.382Z,5.90
2022-12-01T11:59:23.451Z,5.90
2022-12-01T12:02:04.833Z,5.90
2022-12-01T12:04:46.478Z,5.80
2022-12-01T12:07:48.520Z,5.60
2022-12-01T12:10:54.797Z,5.60
2022-12-01T12:13:40.515Z,5.50
2022-12-01T12:16:34.167Z,5.50
2022-12-01T12:19:33.790Z,5.50
2022-12-01T12:22:55.001Z,5.40
2022-12-01T12:25:34.408Z,5.40
2022-12-01T12:28:28.676Z,5.40
2022-12-01T12:31:14.924Z,5.40
2022-12-01T12:34:06.329Z,5.40
2022-12-01T12:37:01.038Z,5.40
2022-12-01T12:40:04.407Z,5.40
2022-12-01T12:43:04.631Z,5.40
2022-12-01T12:46:01.142Z,5.40
2022-12-01T12:49:22.689Z,5.40
2022-12-01T12:52:07.840Z,5.40
2022-12-01T12:54:57.020Z,5.40
2022-12-01T12:57:39.895Z,5.40
2022-12-01T13:00:27.446Z,5.30
2022-12-01T13:03:19.925Z,5.30
2022-12-01T13:06:01.946Z,5.20
2022-12-01T13:08:46.170Z,5.30
2022-12-01T13:11:32.044Z,5.20
2022-12-01T13:14:35.478Z,5.20
2022-12-01T13:17:23.387Z,5.10
2022-12-01T13:19:55.877Z,5.10
2022-12-01T13:22:32.974Z,5.10
2022-12-01T13:25:06.020Z,5.10
2022-12-01T13:27:42.739Z,5.00
2022-12-01T13:30:24.642Z,5.00
2022-12-01T13:33:03.577Z,5.00
2022-12-01T13:35:38.610Z,5.00
2022-12-01T13:38:22.743Z,4.80
2022-12-01T13:41:13.725Z,4.90
2022-12-01T13:44:20.137Z,4.90
2022-12-01T13:47:03.751Z,4.80
2022-12-01T13:49:48.981Z,4.80
2022-12-01T13:52:21.793Z,4.70
2022-12-01T13:55:07.774Z,4.70
2022-12-01T13:57:58.233Z,4.70
2022-12-01T14:00:34.820Z,4.70
2022-12-01T14:03:13.281Z,4.70
2022-12-01T14:05:57.237Z,4.20
2022-12-01T14:08:37.866Z,4.60
2022-12-01T14:11:25.836Z,4.60
2022-12-01T14:14:12.592Z,4.50
2022-12-01T14:16:51.666Z,4.50
2022-12-01T14:19:35.957Z,4.40
2022-12-01T14:22:32.146Z,4.30
2022-12-01T14:25:20.954Z,4.30
2022-12-01T14:27:56.614Z,4.30
2022-12-01T14:30:45.764Z,4.30
2022-12-01T14:33:37.502Z,4.30
2022-12-01T14:36:20.570Z,4.30
2022-12-01T14:39:03.052Z,4.20
2022-12-01T14:41:49.699Z,4.20
2022-12-01T14:44:48.384Z,4.20
2022-12-01T14:47:23.001Z,4.20
2022-12-01T14:50:07.622Z,4.20
2022-12-01T14:53:17.210Z,4.20
2022-12-01T14:55:57.540Z,4.20
2022-12-01T14:58:32.062Z,4.20
2022-12-01T15:01:13.792Z,4.10
2022-12-01T15:03:51.907Z,4.10
2022-12-01T15:06:26.710Z,4.10
2022-12-01T15:12:08.932Z,4.10
2022-12-01T15:14:49.635Z,4.10
2022-12-01T15:17:32.077Z,4.10
2022-12-01T15:20:25.052Z,4.10
2022-12-01T15:23:02.501Z,4.00
2022-12-01T15:25:37.547Z,4.10
2022-12-01T15:28:16.178Z,4.00
2022-12-01T15:30:52.795Z,4.00
2022-12-01T15:33:37.001Z,3.90
2022-12-01T15:36:09.916Z,3.90
2022-12-01T15:38:46.418Z,3.90
2022-12-01T15:41:29.129Z,3.90
2022-12-01T15:44:05.423Z,3.90
2022-12-01T15:46:37.889Z,3.80
2022-12-01T15:49:27.823Z,3.80
2022-12-01T15:52:10.785Z,3.80
2022-12-01T15:54:48.692Z,3.80
2022-12-01T15:57:22.390Z,3.80
2022-12-01T15:59:57.654Z,3.80
2022-12-01T16:02:33.176Z,3.80
2022-12-01T16:05:19.234Z,3.80
2022-12-01T16:08:13.178Z,3.80
2022-12-01T16:10:45.375Z,3.80
2022-12-01T16:13:47.490Z,3.80
2022-12-01T16:16:45.855Z,3.80
2022-12-01T16:19:18.335Z,3.80
2022-12-01T16:22:02.126Z,3.80
2022-12-01T16:24:55.106Z,3.80
2022-12-01T16:27:31.895Z,3.80
2022-12-01T16:30:19.094Z,3.80
2022-12-01T16:33:01.189Z,3.80
2022-12-01T16:35:34.526Z,3.80
2022-12-01T16:38:20.829Z,3.80
2022-12-01T16:40:59.152Z,3.80
2022-12-01T16:43:31.919Z,3.80
2022-12-01T16:46:09.448Z,3.80
2022-12-01T16:48:44.261Z,3.80
2022-12-01T16:51:17.337Z,3.80
2022-12-01T16:53:59.788Z,3.70
2022-12-01T16:56:32.667Z,3.70
2022-12-01T16:59:05.562Z,3.70
2022-12-01T17:01:38.134Z,3.70
2022-12-01T17:04:10.937Z,3.70
2022-12-01T17:06:43.469Z,3.70
2022-12-01T17:09:16.263Z,3.60
2022-12-01T17:11:48.791Z,3.70
2022-12-01T17:14:21.579Z,3.70
2022-12-01T17:16:54.088Z,3.70
2022-12-01T17:19:26.875Z,3.60
2022-12-01T17:21:59.448Z,3.70
2022-12-01T17:24:32.191Z,3.70
2022-12-01T17:27:04.707Z,3.70
2022-12-01T17:29:44.460Z,3.60
2022-12-01T17:32:18.506Z,3.60
2022-12-01T17:34:51.729Z,3.60
2022-12-01T17:37:24.556Z,3.70
2022-12-01T17:39:57.432Z,3.70
2022-12-01T17:42:31.987Z,3.70
2022-12-01T17:45:05.410Z,3.70
2022-12-01T17:47:37.924Z,3.70
2022-12-01T17:50:11.438Z,3.70
2022-12-01T17:52:44.291Z,3.70
2022-12-01T17:55:19.843Z,3.70
2022-12-01T17:57:52.347Z,3.70
2022-12-01T18:00:25.110Z,3.70
2022-12-01T18:02:57.678Z,3.70
2022-12-01T18:05:30.587Z,3.70
2022-12-01T18:08:03.213Z,3.70
2022-12-01T18:10:36.631Z,3.60
2022-12-01T18:13:09.242Z,3.60
2022-12-01T18:15:42.199Z,3.60
2022-12-01T18:18:14.888Z,3.60
2022-12-01T18:20:47.690Z,3.60
2022-12-01T18:23:20.463Z,3.50
2022-12-01T18:25:53.270Z,3.50
2022-12-01T18:28:25.850Z,3.40
2022-12-01T18:31:12.305Z,3.50
2022-12-01T18:33:45.331Z,3.50
2022-12-01T18:36:21.218Z,3.40
2022-12-01T18:38:59.008Z,3.40
2022-12-01T18:41:33.808Z,3.40
2022-12-01T18:44:06.617Z,3.40
2022-12-01T18:46:39.844Z,3.30
2022-12-01T18:49:13.129Z,3.30
2022-12-01T18:51:45.949Z,3.30
2022-12-01T18:54:18.631Z,3.30
2022-12-01T18:56:53.185Z,3.40
2022-12-01T18:59:27.020Z,3.40
2022-12-01T19:02:00.241Z,3.30
2022-12-01T19:04:32.952Z,3.40
2022-12-01T19:07:05.832Z,3.40
2022-12-01T19:09:39.858Z,3.40
2022-12-01T19:12:12.702Z,3.40
2022-12-01T19:14:45.364Z,3.40
2022-12-01T19:17:18.423Z,3.40
2022-12-01T19:19:51.103Z,3.40
2022-12-01T19:22:24.264Z,3.40
2022-12-01T19:24:56.957Z,3.40
2022-12-01T19:27:30.480Z,3.40
2022-12-01T19:30:03.714Z,3.40
2022-12-01T19:32:36.577Z,3.40
2022-12-01T19:35:09.424Z,3.40
2022-12-01T19:37:42.207Z,3.50
2022-12-01T19:40:15.063Z,3.50
2022-12-01T19:42:48.077Z,3.40
2022-12-01T19:45:20.588Z,3.50
2022-12-01T19:47:53.627Z,3.40
2022-12-01T19:50:26.178Z,3.40
2022-12-01T19:52:59.234Z,3.40
2022-12-01T19:55:31.816Z,3.40
2022-12-01T19:58:05.491Z,3.40
2022-12-01T20:00:38.047Z,3.40
2022-12-01T20:03:10.863Z,3.40
2022-12-01T20:05:43.355Z,3.40
2022-12-01T20:08:16.178Z,3.40
2022-12-01T20:10:49.053Z,3.40
2022-12-01T20:13:21.794Z,3.40
2022-12-01T20:15:54.377Z,3.30
2022-12-01T20:18:27.135Z,3.40
2022-12-01T20:21:19.070Z,3.40
2022-12-01T20:23:58.114Z,3.40
2022-12-01T20:26:33.600Z,3.40
2022-12-01T20:29:12.980Z,3.40
2022-12-01T20:31:45.820Z,3.30
2022-12-01T20:34:28.177Z,3.40
2022-12-01T20:37:01.281Z,3.40
2022-12-01T20:39:36.859Z,3.30
2022-12-01T20:42:10.216Z,3.30
2022-12-01T20:44:43.004Z,3.30
2022-12-01T20:47:18.507Z,3.30
2022-12-01T20:49:56.840Z,3.20
2022-12-01T20:52:33.936Z,3.20
2022-12-01T20:55:07.501Z,3.20
2022-12-01T20:57:40.195Z,3.20
2022-12-01T21:00:13.721Z,3.20
2022-12-01T21:02:47.869Z,3.20
2022-12-01T21:05:20.711Z,3.20
2022-12-01T21:07:54.084Z,3.20
2022-12-01T21:10:27.074Z,3.20
2022-12-01T21:13:24.254Z,3.20
2022-12-01T21:16:03.461Z,3.10
2022-12-01T21:18:52.503Z,3.10
2022-12-01T21:21:30.402Z,3.10
2022-12-01T21:24:13.706Z,3.10
2022-12-01T21:26:49.818Z,3.10
2022-12-01T21:29:27.807Z,3.10
2022-12-01T21:32:05.551Z,3.10
2022-12-01T21:34:38.171Z,3.10
2022-12-01T21:37:23.221Z,3.10
2022-12-01T21:39:57.387Z,3.00
2022-12-01T21:42:32.007Z,3.00
2022-12-01T21:45:17.706Z,3.00
2022-12-01T21:47:50.501Z,3.00
2022-12-01T21:50:24.953Z,3.10
2022-12-01T21:52:58.410Z,3.00
2022-12-01T21:55:33.244Z,3.00
2022-12-01T21:58:28.146Z,3.00
2022-12-01T22:01:01.296Z,3.00
2022-12-01T22:03:42.960Z,3.00
2022-12-01T22:06:30.786Z,3.00
2022-12-01T22:09:24.393Z,3.00
2022-12-01T22:12:04.555Z,3.00
2022-12-01T22:14:37.227Z,3.00
2022-12-01T22:17:10.000Z,3.00
2022-12-01T22:19:47.478Z,3.00
2022-12-01T22:22:26.069Z,2.90
2022-12-01T22:25:07.195Z,2.90
2022-12-01T22:27:40.499Z,2.90
2022-12-01T22:30:20.661Z,2.80
2022-12-01T22:32:57.182Z,2.80
2022-12-01T22:35:45.247Z,2.80
2022-12-01T22:38:30.918Z,2.80
2022-12-01T22:41:12.630Z,2.80
2022-12-01T22:43:45.174Z,2.80
2022-12-01T22:46:30.519Z,2.80
2022-12-01T22:49:19.451Z,2.70
2022-12-01T22:51:59.598Z,2.70
2022-12-01T22:54:49.557Z,2.60
2022-12-01T22:57:32.417Z,2.70
2022-12-01T23:00:16.802Z,2.60
2022-12-01T23:02:51.131Z,2.60
2022-12-01T23:05:26.646Z,2.60
2022-12-01T23:07:59.569Z,2.60
2022-12-01T23:10:34.929Z,2.50
2022-12-01T23:13:16.610Z,2.50
2022-12-01T23:15:54.239Z,2.50
2022-12-01T23:18:32.151Z,2.50
2022-12-01T23:21:05.058Z,2.40
2022-12-01T23:23:38.138Z,2.40
2022-12-01T23:26:10.652Z,2.50
2022-12-01T23:28:43.562Z,2.40
2022-12-01T23:31:16.179Z,2.40
2022-12-01T23:33:49.137Z,2.40
2022-12-01T23:36:29.641Z,2.40
2022-12-01T23:39:06.975Z,2.30
2022-12-01T23:41:41.958Z,2.30
2022-12-01T23:44:22.569Z,2.30
2022-12-01T23:46:57.830Z,2.30
2022-12-01T23:49:35.109Z,2.20
2022-12-01T23:52:13.558Z,2.20
2022-12-01T23:54:46.776Z,2.20
2022-12-01T23:57:21.064Z,2.30
2022-12-01T23:59:56.338Z,2.20
